sensor_id;sensor_type;location;lat;lon;timestamp;P1;P2;P0
50866;PMS7003;36839;51.946;21.002;2023-02-18T00:02:16;3.00;1.00;0.00
50866;PMS7003;36839;51.946;21.002;2023-02-18T00:04:43;3.00;1.00;0.00
50866;PMS7003;36839;51.946;21.002;2023-02-18T00:07:11;2.00;2.00;2.00
50866;PMS7003;36839;51.946;21.002;2023-02-18T00:09:39;1.00;1.00;1.00
50866;PMS7003;36839;51.946;21.002;2023-02-18T00:12:06;0.00;0.00;0.00
50866;PMS7003;36839;51.946;21.002;2023-02-18T00:14:34;2.00;2.00;1.00
50866;PMS7003;36839;51.946;21.002;2023-02-18T00:17:02;1.00;1.00;0.00
50866;PMS7003;36839;51.946;21.002;2023-02-18T00:19:29;6.00;1.00;1.00
50866;PMS7003;36839;51.946;21.002;2023-02-18T00:21:57;0.00;0.00;0.00
50866;PMS7003;36839;51.946;21.002;2023-02-18T00:24:25;1.00;1.00;0.00
50866;PMS7003;36839;51.946;21.002;2023-02-18T00:26:52;1.00;0.00;0.00
50866;PMS7003;36839;51.946;21.002;2023-02-18T00:29:21;2.00;1.00;1.00
50866;PMS7003;36839;51.946;21.002;2023-02-18T00:31:49;1.00;1.00;1.00
50866;PMS7003;36839;51.946;21.002;2023-02-18T00:34:16;0.00;0.00;0.00
50866;PMS7003;36839;51.946;21.002;2023-02-18T00:36:45;1.00;1.00;0.00
50866;PMS7003;36839;51.946;21.002;2023-02-18T00:39:12;0.00;0.00;0.00
50866;PMS7003;36839;51.946;21.002;2023-02-18T00:41:40;1.50;1.00;1.00
50866;PMS7003;36839;51.946;21.002;2023-02-18T00:44:08;2.00;2.00;1.00
50866;PMS7003;36839;51.946;21.002;2023-02-18T00:46:35;1.00;1.00;0.00
50866;PMS7003;36839;51.946;21.002;2023-02-18T00:49:04;1.00;1.00;1.00
50866;PMS7003;36839;51.946;21.002;2023-02-18T00:51:31;2.00;2.00;1.00
50866;PMS7003;36839;51.946;21.002;2023-02-18T00:53:58;0.50;0.50;0.00
50866;PMS7003;36839;51.946;21.002;2023-02-18T00:56:26;1.00;1.00;1.00
50866;PMS7003;36839;51.946;21.002;2023-02-18T00:58:53;1.00;1.00;1.00
50866;PMS7003;36839;51.946;21.002;2023-02-18T01:01:20;2.00;1.00;0.00
50866;PMS7003;36839;51.946;21.002;2023-02-18T01:03:48;2.00;1.00;0.00
50866;PMS7003;36839;51.946;21.002;2023-02-18T01:06:15;2.00;2.00;2.00
50866;PMS7003;36839;51.946;21.002;2023-02-18T01:08:42;1.00;1.00;1.00
50866;PMS7003;36839;51.946;21.002;2023-02-18T01:11:10;1.50;1.50;1.00
50866;PMS7003;36839;51.946;21.002;2023-02-18T01:13:39;1.00;1.00;0.00
50866;PMS7003;36839;51.946;21.002;2023-02-18T01:16:07;2.00;2.00;1.00
50866;PMS7003;36839;51.946;21.002;2023-02-18T01:18:39;3.00;1.50;1.00
50866;PMS7003;36839;51.946;21.002;2023-02-18T01:21:12;1.00;1.00;1.00
50866;PMS7003;36839;51.946;21.002;2023-02-18T01:23:41;1.00;1.00;1.00
50866;PMS7003;36839;51.946;21.002;2023-02-18T01:26:12;3.00;1.00;1.00
50866;PMS7003;36839;51.946;21.002;2023-02-18T01:28:39;0.00;0.00;0.00
50866;PMS7003;36839;51.946;21.002;2023-02-18T01:31:08;1.00;1.00;1.00
50866;PMS7003;36839;51.946;21.002;2023-02-18T01:33:37;2.00;2.00;1.00
50866;PMS7003;36839;51.946;21.002;2023-02-18T01:36:04;1.00;0.00;0.00
50866;PMS7003;36839;51.946;21.002;2023-02-18T01:40:59;0.50;0.00;0.00
50866;PMS7003;36839;51.946;21.002;2023-02-18T01:43:26;1.00;1.00;1.00
50866;PMS7003;36839;51.946;21.002;2023-02-18T01:50:58;1.50;1.50;1.00
50866;PMS7003;36839;51.946;21.002;2023-02-18T01:53:32;0.00;0.00;0.00
50866;PMS7003;36839;51.946;21.002;2023-02-18T01:56:05;2.00;1.00;1.00
50866;PMS7003;36839;51.946;21.002;2023-02-18T01:58:37;2.00;0.50;0.00
50866;PMS7003;36839;51.946;21.002;2023-02-18T02:01:04;1.50;0.50;0.50
50866;PMS7003;36839;51.946;21.002;2023-02-18T02:03:32;1.50;0.50;0.50
50866;PMS7003;36839;51.946;21.002;2023-02-18T02:05:59;1.00;1.00;1.00
50866;PMS7003;36839;51.946;21.002;2023-02-18T02:08:27;2.50;2.00;1.00
50866;PMS7003;36839;51.946;21.002;2023-02-18T02:14:13;0.50;0.00;0.00
50866;PMS7003;36839;51.946;21.002;2023-02-18T02:16:54;2.00;1.00;0.50
50866;PMS7003;36839;51.946;21.002;2023-02-18T02:19:44;2.00;1.00;0.50
50866;PMS7003;36839;51.946;21.002;2023-02-18T02:22:51;2.00;2.00;1.00
50866;PMS7003;36839;51.946;21.002;2023-02-18T02:37:13;1.00;1.00;1.00
50866;PMS7003;36839;51.946;21.002;2023-02-18T02:51:14;7.00;2.50;2.00
50866;PMS7003;36839;51.946;21.002;2023-02-18T02:54:13;1.00;1.00;1.00
50866;PMS7003;36839;51.946;21.002;2023-02-18T02:57:00;1.50;1.50;1.00
50866;PMS7003;36839;51.946;21.002;2023-02-18T02:59:32;2.00;1.00;1.00
50866;PMS7003;36839;51.946;21.002;2023-02-18T03:02:23;2.00;1.00;0.50
50866;PMS7003;36839;51.946;21.002;2023-02-18T03:18:37;0.50;0.50;0.00
50866;PMS7003;36839;51.946;21.002;2023-02-18T03:21:13;3.00;2.00;1.00
50866;PMS7003;36839;51.946;21.002;2023-02-18T03:23:48;3.00;1.00;1.00
50866;PMS7003;36839;51.946;21.002;2023-02-18T03:26:23;2.00;2.00;1.00
50866;PMS7003;36839;51.946;21.002;2023-02-18T03:31:22;1.00;1.00;1.00
50866;PMS7003;36839;51.946;21.002;2023-02-18T03:33:54;5.00;2.00;1.00
50866;PMS7003;36839;51.946;21.002;2023-02-18T03:36:35;1.00;1.00;1.00
50866;PMS7003;36839;51.946;21.002;2023-02-18T03:39:08;2.00;1.00;0.00
50866;PMS7003;36839;51.946;21.002;2023-02-18T03:41:40;4.00;2.00;1.00
50866;PMS7003;36839;51.946;21.002;2023-02-18T03:44:09;1.50;1.50;1.00
50866;PMS7003;36839;51.946;21.002;2023-02-18T03:46:37;1.00;1.00;1.00
50866;PMS7003;36839;51.946;21.002;2023-02-18T03:49:13;2.00;1.00;1.00
50866;PMS7003;36839;51.946;21.002;2023-02-18T03:56:36;1.50;1.50;1.00
50866;PMS7003;36839;51.946;21.002;2023-02-18T03:59:03;1.50;0.50;0.00
50866;PMS7003;36839;51.946;21.002;2023-02-18T04:01:30;2.00;2.00;0.00
50866;PMS7003;36839;51.946;21.002;2023-02-18T04:03:58;3.50;1.50;1.00
50866;PMS7003;36839;51.946;21.002;2023-02-18T04:06:27;1.00;0.00;0.00
50866;PMS7003;36839;51.946;21.002;2023-02-18T04:08:58;4.00;1.00;1.00
50866;PMS7003;36839;51.946;21.002;2023-02-18T04:11:24;3.00;2.00;1.50
50866;PMS7003;36839;51.946;21.002;2023-02-18T04:13:51;2.00;1.00;0.00
50866;PMS7003;36839;51.946;21.002;2023-02-18T04:16:18;2.00;2.00;1.00
50866;PMS7003;36839;51.946;21.002;2023-02-18T04:18:45;1.00;1.00;0.50
50866;PMS7003;36839;51.946;21.002;2023-02-18T04:21:12;1.00;1.00;0.00
50866;PMS7003;36839;51.946;21.002;2023-02-18T04:26:05;0.50;0.00;0.00
50866;PMS7003;36839;51.946;21.002;2023-02-18T04:28:32;2.00;2.00;1.00
50866;PMS7003;36839;51.946;21.002;2023-02-18T04:30:59;2.00;2.00;1.00
50866;PMS7003;36839;51.946;21.002;2023-02-18T04:33:26;3.00;2.00;2.00
50866;PMS7003;36839;51.946;21.002;2023-02-18T04:35:53;1.00;1.00;0.00
50866;PMS7003;36839;51.946;21.002;2023-02-18T04:38:20;3.00;1.00;1.00
50866;PMS7003;36839;51.946;21.002;2023-02-18T04:40:47;3.00;1.00;1.00
50866;PMS7003;36839;51.946;21.002;2023-02-18T04:43:14;2.00;1.00;0.00
50866;PMS7003;36839;51.946;21.002;2023-02-18T04:45:41;2.00;1.00;1.00
50866;PMS7003;36839;51.946;21.002;2023-02-18T04:48:08;1.00;1.00;1.00
50866;PMS7003;36839;51.946;21.002;2023-02-18T04:50:35;1.00;1.00;1.00
50866;PMS7003;36839;51.946;21.002;2023-02-18T04:53:02;3.00;1.00;1.00
50866;PMS7003;36839;51.946;21.002;2023-02-18T04:55:29;2.00;1.00;1.00
50866;PMS7003;36839;51.946;21.002;2023-02-18T04:57:56;0.00;0.00;0.00
50866;PMS7003;36839;51.946;21.002;2023-02-18T05:02:50;2.00;2.00;1.00
50866;PMS7003;36839;51.946;21.002;2023-02-18T05:05:17;1.00;0.00;0.00
50866;PMS7003;36839;51.946;21.002;2023-02-18T05:07:44;3.00;3.00;2.00
50866;PMS7003;36839;51.946;21.002;2023-02-18T05:10:14;2.00;2.00;1.00
50866;PMS7003;36839;51.946;21.002;2023-02-18T05:12:42;1.50;1.50;1.50
50866;PMS7003;36839;51.946;21.002;2023-02-18T05:15:10;2.00;2.00;1.00
50866;PMS7003;36839;51.946;21.002;2023-02-18T05:17:37;3.50;0.50;0.00
50866;PMS7003;36839;51.946;21.002;2023-02-18T05:20:04;1.00;1.00;1.00
50866;PMS7003;36839;51.946;21.002;2023-02-18T05:22:32;2.00;0.50;0.00
50866;PMS7003;36839;51.946;21.002;2023-02-18T05:24:59;1.00;1.00;1.00
50866;PMS7003;36839;51.946;21.002;2023-02-18T05:27:26;1.00;1.00;0.50
50866;PMS7003;36839;51.946;21.002;2023-02-18T05:29:53;1.00;1.00;0.00
50866;PMS7003;36839;51.946;21.002;2023-02-18T05:32:20;1.00;1.00;1.00
50866;PMS7003;36839;51.946;21.002;2023-02-18T05:34:48;1.00;1.00;1.00
50866;PMS7003;36839;51.946;21.002;2023-02-18T05:37:15;1.00;1.00;1.00
50866;PMS7003;36839;51.946;21.002;2023-02-18T05:39:44;2.00;1.00;1.00
50866;PMS7003;36839;51.946;21.002;2023-02-18T05:42:11;2.00;1.00;0.00
50866;PMS7003;36839;51.946;21.002;2023-02-18T05:44:38;0.00;0.00;0.00
50866;PMS7003;36839;51.946;21.002;2023-02-18T05:47:06;4.00;1.00;1.00
50866;PMS7003;36839;51.946;21.002;2023-02-18T05:49:35;2.00;2.00;1.00
50866;PMS7003;36839;51.946;21.002;2023-02-18T05:52:03;2.00;1.00;0.00
50866;PMS7003;36839;51.946;21.002;2023-02-18T05:54:31;4.00;2.00;1.00
50866;PMS7003;36839;51.946;21.002;2023-02-18T05:56:58;4.00;2.00;0.00
50866;PMS7003;36839;51.946;21.002;2023-02-18T05:59:26;3.50;2.00;1.00
50866;PMS7003;36839;51.946;21.002;2023-02-18T06:01:54;3.00;3.00;2.00
50866;PMS7003;36839;51.946;21.002;2023-02-18T06:04:21;3.00;3.00;2.00
50866;PMS7003;36839;51.946;21.002;2023-02-18T06:06:49;3.50;1.00;0.50
50866;PMS7003;36839;51.946;21.002;2023-02-18T06:09:16;7.00;3.00;2.00
50866;PMS7003;36839;51.946;21.002;2023-02-18T06:11:43;3.00;2.00;1.00
50866;PMS7003;36839;51.946;21.002;2023-02-18T06:14:11;1.00;1.00;1.00
50866;PMS7003;36839;51.946;21.002;2023-02-18T06:16:39;3.00;2.00;1.00
50866;PMS7003;36839;51.946;21.002;2023-02-18T06:19:07;1.00;1.00;1.00
50866;PMS7003;36839;51.946;21.002;2023-02-18T06:21:34;2.00;2.00;1.00
50866;PMS7003;36839;51.946;21.002;2023-02-18T06:24:01;2.00;2.00;1.00
50866;PMS7003;36839;51.946;21.002;2023-02-18T06:26:28;4.50;4.50;4.00
50866;PMS7003;36839;51.946;21.002;2023-02-18T06:28:55;2.50;1.00;0.50
50866;PMS7003;36839;51.946;21.002;2023-02-18T06:31:22;0.00;0.00;0.00
50866;PMS7003;36839;51.946;21.002;2023-02-18T06:33:49;3.00;3.00;2.00
50866;PMS7003;36839;51.946;21.002;2023-02-18T06:36:16;5.00;2.00;1.00
50866;PMS7003;36839;51.946;21.002;2023-02-18T06:38:44;3.00;3.00;3.00
50866;PMS7003;36839;51.946;21.002;2023-02-18T06:41:13;2.00;2.00;1.00
50866;PMS7003;36839;51.946;21.002;2023-02-18T06:43:41;9.00;3.00;2.00
50866;PMS7003;36839;51.946;21.002;2023-02-18T06:46:08;4.00;3.00;2.00
50866;PMS7003;36839;51.946;21.002;2023-02-18T06:48:35;3.00;2.00;1.00
50866;PMS7003;36839;51.946;21.002;2023-02-18T06:51:02;2.00;2.00;1.00
50866;PMS7003;36839;51.946;21.002;2023-02-18T06:53:30;5.00;3.50;2.00
50866;PMS7003;36839;51.946;21.002;2023-02-18T06:55:58;8.50;4.50;3.00
50866;PMS7003;36839;51.946;21.002;2023-02-18T06:58:25;4.50;4.00;3.00
50866;PMS7003;36839;51.946;21.002;2023-02-18T07:00:52;1.00;1.00;1.00
50866;PMS7003;36839;51.946;21.002;2023-02-18T07:03:19;4.00;4.00;3.00
50866;PMS7003;36839;51.946;21.002;2023-02-18T07:05:47;3.00;3.00;1.50
50866;PMS7003;36839;51.946;21.002;2023-02-18T07:08:14;3.00;2.00;1.00
50866;PMS7003;36839;51.946;21.002;2023-02-18T07:10:42;8.50;4.50;3.50
50866;PMS7003;36839;51.946;21.002;2023-02-18T07:13:09;1.50;1.50;1.00
50866;PMS7003;36839;51.946;21.002;2023-02-18T07:15:36;4.00;3.00;3.00
50866;PMS7003;36839;51.946;21.002;2023-02-18T07:18:03;5.00;3.00;2.00
50866;PMS7003;36839;51.946;21.002;2023-02-18T07:20:30;4.33;2.00;1.67
50866;PMS7003;36839;51.946;21.002;2023-02-18T07:22:58;11.00;9.00;5.00
50866;PMS7003;36839;51.946;21.002;2023-02-18T07:25:25;8.00;6.00;5.00
50866;PMS7003;36839;51.946;21.002;2023-02-18T07:27:52;3.00;1.00;0.00
50866;PMS7003;36839;51.946;21.002;2023-02-18T07:30:19;5.50;4.00;3.00
50866;PMS7003;36839;51.946;21.002;2023-02-18T07:32:46;5.00;2.00;2.00
50866;PMS7003;36839;51.946;21.002;2023-02-18T07:37:45;2.00;2.00;2.00
50866;PMS7003;36839;51.946;21.002;2023-02-18T07:40:14;8.50;6.00;5.00
50866;PMS7003;36839;51.946;21.002;2023-02-18T07:42:46;11.00;8.00;5.00
50866;PMS7003;36839;51.946;21.002;2023-02-18T07:45:14;5.50;3.00;2.00
50866;PMS7003;36839;51.946;21.002;2023-02-18T07:47:41;4.00;3.00;1.50
50866;PMS7003;36839;51.946;21.002;2023-02-18T07:50:11;3.00;3.00;2.00
50866;PMS7003;36839;51.946;21.002;2023-02-18T07:52:38;3.00;3.00;2.00
50866;PMS7003;36839;51.946;21.002;2023-02-18T07:55:05;5.00;4.00;3.00
50866;PMS7003;36839;51.946;21.002;2023-02-18T07:57:32;4.50;3.00;2.00
50866;PMS7003;36839;51.946;21.002;2023-02-18T08:00:19;4.00;3.00;2.00
50866;PMS7003;36839;51.946;21.002;2023-02-18T08:02:47;2.00;2.00;2.00
50866;PMS7003;36839;51.946;21.002;2023-02-18T08:05:14;7.00;5.00;4.00
50866;PMS7003;36839;51.946;21.002;2023-02-18T08:07:42;2.50;2.50;2.00
50866;PMS7003;36839;51.946;21.002;2023-02-18T08:10:09;2.00;2.00;1.00
50866;PMS7003;36839;51.946;21.002;2023-02-18T08:12:36;2.00;2.00;2.00
50866;PMS7003;36839;51.946;21.002;2023-02-18T08:15:03;6.00;3.00;2.00
50866;PMS7003;36839;51.946;21.002;2023-02-18T08:17:30;5.00;3.00;1.50
50866;PMS7003;36839;51.946;21.002;2023-02-18T08:19:57;6.00;3.00;3.00
50866;PMS7003;36839;51.946;21.002;2023-02-18T08:22:24;1.00;1.00;1.00
50866;PMS7003;36839;51.946;21.002;2023-02-18T08:24:55;5.00;3.00;2.00
50866;PMS7003;36839;51.946;21.002;2023-02-18T08:27:22;4.00;2.00;2.00
50866;PMS7003;36839;51.946;21.002;2023-02-18T08:29:51;9.00;5.00;3.00
50866;PMS7003;36839;51.946;21.002;2023-02-18T08:32:18;3.00;3.00;2.00
50866;PMS7003;36839;51.946;21.002;2023-02-18T08:34:46;2.50;2.50;2.00
50866;PMS7003;36839;51.946;21.002;2023-02-18T08:37:13;4.00;3.00;2.00
50866;PMS7003;36839;51.946;21.002;2023-02-18T08:39:40;4.00;3.00;2.00
50866;PMS7003;36839;51.946;21.002;2023-02-18T08:42:07;5.00;3.00;2.00
50866;PMS7003;36839;51.946;21.002;2023-02-18T08:44:34;4.00;2.00;2.00
50866;PMS7003;36839;51.946;21.002;2023-02-18T08:47:01;4.00;2.00;1.00
50866;PMS7003;36839;51.946;21.002;2023-02-18T08:49:29;4.50;3.00;2.00
50866;PMS7003;36839;51.946;21.002;2023-02-18T08:51:56;2.00;2.00;2.00
50866;PMS7003;36839;51.946;21.002;2023-02-18T08:54:22;4.00;2.00;2.00
50866;PMS7003;36839;51.946;21.002;2023-02-18T08:56:52;2.00;1.50;1.00
50866;PMS7003;36839;51.946;21.002;2023-02-18T08:59:21;4.00;2.00;2.00
50866;PMS7003;36839;51.946;21.002;2023-02-18T09:01:49;2.00;2.00;2.00
50866;PMS7003;36839;51.946;21.002;2023-02-18T09:04:16;1.00;1.00;1.00
50866;PMS7003;36839;51.946;21.002;2023-02-18T09:06:43;3.00;2.00;1.00
50866;PMS7003;36839;51.946;21.002;2023-02-18T09:09:12;4.00;2.00;2.00
50866;PMS7003;36839;51.946;21.002;2023-02-18T09:11:39;2.00;1.00;1.00
50866;PMS7003;36839;51.946;21.002;2023-02-18T09:14:07;4.50;4.50;3.00
50866;PMS7003;36839;51.946;21.002;2023-02-18T09:16:34;1.00;1.00;1.00
50866;PMS7003;36839;51.946;21.002;2023-02-18T09:19:01;4.00;1.00;1.00
50866;PMS7003;36839;51.946;21.002;2023-02-18T09:21:29;5.00;5.00;3.00
50866;PMS7003;36839;51.946;21.002;2023-02-18T09:23:57;6.00;5.00;3.00
50866;PMS7003;36839;51.946;21.002;2023-02-18T09:26:24;1.50;1.50;1.50
50866;PMS7003;36839;51.946;21.002;2023-02-18T09:31:21;6.00;5.00;3.00
50866;PMS7003;36839;51.946;21.002;2023-02-18T09:33:54;4.00;3.00;2.00
50866;PMS7003;36839;51.946;21.002;2023-02-18T09:36:23;10.00;6.00;5.00
50866;PMS7003;36839;51.946;21.002;2023-02-18T09:38:52;6.00;3.00;3.00
50866;PMS7003;36839;51.946;21.002;2023-02-18T09:43:52;15.00;11.00;6.00
50866;PMS7003;36839;51.946;21.002;2023-02-18T09:46:31;2.00;1.50;1.00
50866;PMS7003;36839;51.946;21.002;2023-02-18T09:49:24;7.00;3.00;3.00
50866;PMS7003;36839;51.946;21.002;2023-02-18T09:51:55;3.00;3.00;2.00
50866;PMS7003;36839;51.946;21.002;2023-02-18T09:54:30;4.50;3.50;2.00
50866;PMS7003;36839;51.946;21.002;2023-02-18T09:56:57;6.00;5.00;4.00
50866;PMS7003;36839;51.946;21.002;2023-02-18T09:59:25;3.00;2.00;1.50
50866;PMS7003;36839;51.946;21.002;2023-02-18T10:01:52;3.00;3.00;2.50
50866;PMS7003;36839;51.946;21.002;2023-02-18T10:04:22;7.00;6.00;3.00
50866;PMS7003;36839;51.946;21.002;2023-02-18T10:06:55;3.00;3.00;2.00
50866;PMS7003;36839;51.946;21.002;2023-02-18T10:09:34;2.00;2.00;2.00
50866;PMS7003;36839;51.946;21.002;2023-02-18T10:12:13;6.00;6.00;4.00
50866;PMS7003;36839;51.946;21.002;2023-02-18T10:14:47;5.00;3.00;3.00
50866;PMS7003;36839;51.946;21.002;2023-02-18T10:17:17;6.00;4.50;3.00
50866;PMS7003;36839;51.946;21.002;2023-02-18T10:19:47;4.00;4.00;3.00
50866;PMS7003;36839;51.946;21.002;2023-02-18T10:22:15;7.00;5.00;3.00
50866;PMS7003;36839;51.946;21.002;2023-02-18T10:24:54;9.00;7.00;4.00
50866;PMS7003;36839;51.946;21.002;2023-02-18T10:27:25;3.00;2.00;1.00
50866;PMS7003;36839;51.946;21.002;2023-02-18T10:29:55;4.00;4.00;3.00
50866;PMS7003;36839;51.946;21.002;2023-02-18T10:35:14;2.50;2.50;2.50
50866;PMS7003;36839;51.946;21.002;2023-02-18T10:43:35;6.00;4.00;3.00
50866;PMS7003;36839;51.946;21.002;2023-02-18T10:52:00;14.00;10.00;6.00
50866;PMS7003;36839;51.946;21.002;2023-02-18T10:54:50;10.00;7.00;5.00
50866;PMS7003;36839;51.946;21.002;2023-02-18T10:57:25;7.00;6.00;4.00
50866;PMS7003;36839;51.946;21.002;2023-02-18T10:59:58;6.00;6.00;4.00
50866;PMS7003;36839;51.946;21.002;2023-02-18T11:05:26;6.00;3.00;2.00
50866;PMS7003;36839;51.946;21.002;2023-02-18T11:13:01;4.50;3.50;2.50
50866;PMS7003;36839;51.946;21.002;2023-02-18T11:15:34;4.00;4.00;2.00
50866;PMS7003;36839;51.946;21.002;2023-02-18T11:21:03;4.50;3.00;1.50
50866;PMS7003;36839;51.946;21.002;2023-02-18T11:23:52;1.00;1.00;0.00
50866;PMS7003;36839;51.946;21.002;2023-02-18T11:26:29;8.00;3.00;2.00
50866;PMS7003;36839;51.946;21.002;2023-02-18T11:29:04;2.00;2.00;2.00
50866;PMS7003;36839;51.946;21.002;2023-02-18T11:31:40;3.00;3.00;2.00
50866;PMS7003;36839;51.946;21.002;2023-02-18T11:34:14;4.00;2.50;2.00
50866;PMS7003;36839;51.946;21.002;2023-02-18T11:36:47;3.00;3.00;2.00
50866;PMS7003;36839;51.946;21.002;2023-02-18T11:39:17;6.00;4.00;3.00
50866;PMS7003;36839;51.946;21.002;2023-02-18T11:42:00;11.00;6.00;5.00
50866;PMS7003;36839;51.946;21.002;2023-02-18T11:47:02;10.00;6.00;4.00
50866;PMS7003;36839;51.946;21.002;2023-02-18T11:52:22;3.00;2.00;1.00
50866;PMS7003;36839;51.946;21.002;2023-02-18T11:55:00;16.00;10.00;6.00
50866;PMS7003;36839;51.946;21.002;2023-02-18T11:57:34;12.00;9.50;6.00
50866;PMS7003;36839;51.946;21.002;2023-02-18T12:00:49;6.00;3.00;2.00
50866;PMS7003;36839;51.946;21.002;2023-02-18T12:06:19;4.00;4.00;2.00
50866;PMS7003;36839;51.946;21.002;2023-02-18T12:14:07;4.00;4.00;3.00
50866;PMS7003;36839;51.946;21.002;2023-02-18T12:16:56;6.00;4.50;3.00
50866;PMS7003;36839;51.946;21.002;2023-02-18T12:43:53;6.00;4.00;3.50
50866;PMS7003;36839;51.946;21.002;2023-02-18T12:46:53;14.00;14.00;11.00
50866;PMS7003;36839;51.946;21.002;2023-02-18T13:09:57;13.00;11.50;8.00
50866;PMS7003;36839;51.946;21.002;2023-02-18T13:17:49;3.00;2.00;1.00
50866;PMS7003;36839;51.946;21.002;2023-02-18T13:20:35;5.00;5.00;3.00
50866;PMS7003;36839;51.946;21.002;2023-02-18T13:23:23;7.00;3.00;3.00
50866;PMS7003;36839;51.946;21.002;2023-02-18T13:25:56;5.50;5.50;4.50
50866;PMS7003;36839;51.946;21.002;2023-02-18T13:28:37;19.00;16.50;10.00
50866;PMS7003;36839;51.946;21.002;2023-02-18T13:34:14;8.50;6.00;5.00
50866;PMS7003;36839;51.946;21.002;2023-02-18T13:39:59;9.00;7.00;5.50
50866;PMS7003;36839;51.946;21.002;2023-02-18T13:47:59;6.00;5.00;4.00
50866;PMS7003;36839;51.946;21.002;2023-02-18T13:55:40;5.00;5.00;4.00
50866;PMS7003;36839;51.946;21.002;2023-02-18T13:58:22;11.50;5.00;4.00
50866;PMS7003;36839;51.946;21.002;2023-02-18T14:01:04;12.00;5.00;4.00
50866;PMS7003;36839;51.946;21.002;2023-02-18T14:09:25;18.00;11.50;8.50
50866;PMS7003;36839;51.946;21.002;2023-02-18T14:11:54;12.50;10.50;8.00
50866;PMS7003;36839;51.946;21.002;2023-02-18T14:19:40;19.00;14.00;13.00
50866;PMS7003;36839;51.946;21.002;2023-02-18T14:27:51;17.00;14.00;10.00
50866;PMS7003;36839;51.946;21.002;2023-02-18T14:38:10;6.00;4.50;3.00
50866;PMS7003;36839;51.946;21.002;2023-02-18T14:41:11;18.00;13.00;10.00
50866;PMS7003;36839;51.946;21.002;2023-02-18T14:47:10;10.00;10.00;7.00
50866;PMS7003;36839;51.946;21.002;2023-02-18T14:49:54;17.00;11.00;9.00
50866;PMS7003;36839;51.946;21.002;2023-02-18T14:52:30;5.00;5.00;5.00
50866;PMS7003;36839;51.946;21.002;2023-02-18T14:55:32;6.00;6.00;5.00
50866;PMS7003;36839;51.946;21.002;2023-02-18T14:58:11;12.00;7.00;6.00
50866;PMS7003;36839;51.946;21.002;2023-02-18T15:00:43;3.00;3.00;2.00
50866;PMS7003;36839;51.946;21.002;2023-02-18T15:03:12;6.00;5.00;4.00
50866;PMS7003;36839;51.946;21.002;2023-02-18T15:05:45;4.00;2.00;1.00
50866;PMS7003;36839;51.946;21.002;2023-02-18T15:08:18;2.00;2.00;1.67
50866;PMS7003;36839;51.946;21.002;2023-02-18T15:10:55;2.00;2.00;1.50
50866;PMS7003;36839;51.946;21.002;2023-02-18T15:13:28;2.50;2.50;2.00
50866;PMS7003;36839;51.946;21.002;2023-02-18T15:16:02;1.00;1.00;1.00
50866;PMS7003;36839;51.946;21.002;2023-02-18T15:18:36;1.00;1.00;1.00
50866;PMS7003;36839;51.946;21.002;2023-02-18T15:21:08;3.00;1.00;1.00
50866;PMS7003;36839;51.946;21.002;2023-02-18T15:23:43;3.00;1.00;1.00
50866;PMS7003;36839;51.946;21.002;2023-02-18T15:26:13;3.00;2.00;2.00
50866;PMS7003;36839;51.946;21.002;2023-02-18T15:28:50;5.00;4.50;4.00
50866;PMS7003;36839;51.946;21.002;2023-02-18T15:31:28;7.50;7.50;5.00
50866;PMS7003;36839;51.946;21.002;2023-02-18T15:33:58;5.00;4.00;3.00
50866;PMS7003;36839;51.946;21.002;2023-02-18T15:36:28;3.00;1.50;1.00
50866;PMS7003;36839;51.946;21.002;2023-02-18T15:38:58;2.00;1.00;1.00
50866;PMS7003;36839;51.946;21.002;2023-02-18T15:41:26;1.00;1.00;1.00
50866;PMS7003;36839;51.946;21.002;2023-02-18T15:44:23;5.00;3.00;3.00
50866;PMS7003;36839;51.946;21.002;2023-02-18T15:46:53;2.00;2.00;2.00
50866;PMS7003;36839;51.946;21.002;2023-02-18T15:49:21;4.00;2.00;2.00
50866;PMS7003;36839;51.946;21.002;2023-02-18T15:51:50;3.00;3.00;2.50
50866;PMS7003;36839;51.946;21.002;2023-02-18T15:54:23;3.00;2.00;1.00
50866;PMS7003;36839;51.946;21.002;2023-02-18T15:56:52;3.50;3.50;3.00
50866;PMS7003;36839;51.946;21.002;2023-02-18T15:59:31;3.00;3.00;1.50
50866;PMS7003;36839;51.946;21.002;2023-02-18T16:04:38;8.50;4.50;4.50
50866;PMS7003;36839;51.946;21.002;2023-02-18T16:07:30;13.50;12.00;10.00
50866;PMS7003;36839;51.946;21.002;2023-02-18T16:10:53;12.50;10.50;8.50
50866;PMS7003;36839;51.946;21.002;2023-02-18T16:13:02;16.50;9.00;7.50
50866;PMS7003;36839;51.946;21.002;2023-02-18T16:15:36;27.00;21.50;13.00
50866;PMS7003;36839;51.946;21.002;2023-02-18T16:18:29;51.50;40.50;26.00
50866;PMS7003;36839;51.946;21.002;2023-02-18T16:21:04;25.00;19.00;14.00
50866;PMS7003;36839;51.946;21.002;2023-02-18T16:23:40;44.00;34.00;24.00
50866;PMS7003;36839;51.946;21.002;2023-02-18T16:26:11;44.00;35.00;24.00
50866;PMS7003;36839;51.946;21.002;2023-02-18T16:28:49;26.50;23.00;17.50
50866;PMS7003;36839;51.946;21.002;2023-02-18T16:31:19;28.00;25.50;18.00
50866;PMS7003;36839;51.946;21.002;2023-02-18T16:33:47;38.00;32.00;23.00
50866;PMS7003;36839;51.946;21.002;2023-02-18T16:36:15;33.00;30.00;23.00
50866;PMS7003;36839;51.946;21.002;2023-02-18T16:38:43;25.00;25.00;17.00
50866;PMS7003;36839;51.946;21.002;2023-02-18T16:41:12;24.00;23.00;16.00
50866;PMS7003;36839;51.946;21.002;2023-02-18T16:43:42;30.50;28.50;20.00
50866;PMS7003;36839;51.946;21.002;2023-02-18T16:46:15;35.00;30.00;22.00
50866;PMS7003;36839;51.946;21.002;2023-02-18T16:48:45;65.00;50.00;32.00
50866;PMS7003;36839;51.946;21.002;2023-02-18T16:53:48;23.00;22.00;16.00
50866;PMS7003;36839;51.946;21.002;2023-02-18T16:58:50;29.50;26.50;17.50
50866;PMS7003;36839;51.946;21.002;2023-02-18T17:01:20;29.50;28.00;20.50
50866;PMS7003;36839;51.946;21.002;2023-02-18T17:03:53;24.00;21.00;16.00
50866;PMS7003;36839;51.946;21.002;2023-02-18T17:06:24;29.00;25.00;17.00
50866;PMS7003;36839;51.946;21.002;2023-02-18T17:08:52;19.00;18.00;11.00
50866;PMS7003;36839;51.946;21.002;2023-02-18T17:13:50;21.00;19.50;16.00
50866;PMS7003;36839;51.946;21.002;2023-02-18T17:16:20;19.50;15.50;13.50
50866;PMS7003;36839;51.946;21.002;2023-02-18T17:18:53;17.00;15.00;11.00
50866;PMS7003;36839;51.946;21.002;2023-02-18T17:21:21;8.50;5.00;5.00
50866;PMS7003;36839;51.946;21.002;2023-02-18T17:23:50;17.50;14.50;10.00
50866;PMS7003;36839;51.946;21.002;2023-02-18T17:26:25;15.00;12.00;9.00
50866;PMS7003;36839;51.946;21.002;2023-02-18T17:28:56;25.50;23.50;18.50
50866;PMS7003;36839;51.946;21.002;2023-02-18T17:31:27;13.50;12.50;10.50
50866;PMS7003;36839;51.946;21.002;2023-02-18T17:34:00;13.00;13.00;9.00
50866;PMS7003;36839;51.946;21.002;2023-02-18T17:36:36;8.00;8.00;7.00
50866;PMS7003;36839;51.946;21.002;2023-02-18T17:39:12;20.00;18.00;13.00
50866;PMS7003;36839;51.946;21.002;2023-02-18T17:41:47;16.00;14.00;10.50
50866;PMS7003;36839;51.946;21.002;2023-02-18T17:44:16;22.00;15.00;14.00
50866;PMS7003;36839;51.946;21.002;2023-02-18T17:46:47;21.50;21.50;15.00
50866;PMS7003;36839;51.946;21.002;2023-02-18T17:49:16;34.00;28.50;20.00
50866;PMS7003;36839;51.946;21.002;2023-02-18T17:51:43;15.00;14.50;10.00
50866;PMS7003;36839;51.946;21.002;2023-02-18T17:54:14;27.00;23.00;16.00
50866;PMS7003;36839;51.946;21.002;2023-02-18T17:56:44;27.00;24.00;18.00
50866;PMS7003;36839;51.946;21.002;2023-02-18T17:59:14;15.00;14.00;10.00